sensor_id;sensor_type;location;lat;lon;timestamp;P1;durP1;ratioP1;P2;durP2;ratioP2
80421;SDS011;69763;50.182;9.144;2023-07-20T00:01:30;3.92;;;2.20;;
80421;SDS011;69763;50.182;9.144;2023-07-20T00:03:55;2.90;;;2.15;;
80421;SDS011;69763;50.182;9.144;2023-07-20T00:06:21;8.10;;;2.78;;
80421;SDS011;69763;50.182;9.144;2023-07-20T00:08:46;4.82;;;2.70;;
80421;SDS011;69763;50.182;9.144;2023-07-20T00:11:13;6.10;;;2.88;;
80421;SDS011;69763;50.182;9.144;2023-07-20T00:13:38;6.13;;;2.47;;
80421;SDS011;69763;50.182;9.144;2023-07-20T00:16:04;5.45;;;2.42;;
80421;SDS011;69763;50.182;9.144;2023-07-20T00:18:30;4.43;;;2.92;;
80421;SDS011;69763;50.182;9.144;2023-07-20T00:20:55;4.35;;;2.75;;
80421;SDS011;69763;50.182;9.144;2023-07-20T00:23:20;5.32;;;2.67;;
80421;SDS011;69763;50.182;9.144;2023-07-20T00:25:46;7.95;;;3.15;;
80421;SDS011;69763;50.182;9.144;2023-07-20T00:28:13;3.67;;;2.17;;
80421;SDS011;69763;50.182;9.144;2023-07-20T00:30:39;8.40;;;2.58;;
80421;SDS011;69763;50.182;9.144;2023-07-20T00:33:05;5.78;;;2.80;;
80421;SDS011;69763;50.182;9.144;2023-07-20T00:35:31;7.85;;;2.50;;
80421;SDS011;69763;50.182;9.144;2023-07-20T00:37:57;4.75;;;2.75;;
80421;SDS011;69763;50.182;9.144;2023-07-20T00:40:22;5.10;;;2.42;;
80421;SDS011;69763;50.182;9.144;2023-07-20T00:42:47;6.35;;;2.75;;
80421;SDS011;69763;50.182;9.144;2023-07-20T00:45:14;4.35;;;2.63;;
80421;SDS011;69763;50.182;9.144;2023-07-20T00:47:40;3.15;;;2.45;;
80421;SDS011;69763;50.182;9.144;2023-07-20T00:50:06;5.60;;;3.03;;
80421;SDS011;69763;50.182;9.144;2023-07-20T00:52:31;6.07;;;2.92;;
80421;SDS011;69763;50.182;9.144;2023-07-20T00:54:58;3.55;;;2.70;;
80421;SDS011;69763;50.182;9.144;2023-07-20T00:57:23;7.38;;;2.70;;
80421;SDS011;69763;50.182;9.144;2023-07-20T00:59:49;4.85;;;2.60;;
80421;SDS011;69763;50.182;9.144;2023-07-20T01:02:16;5.63;;;2.90;;
80421;SDS011;69763;50.182;9.144;2023-07-20T01:04:42;5.40;;;3.10;;
80421;SDS011;69763;50.182;9.144;2023-07-20T01:07:09;4.82;;;2.90;;
80421;SDS011;69763;50.182;9.144;2023-07-20T01:09:39;5.82;;;2.80;;
80421;SDS011;69763;50.182;9.144;2023-07-20T01:12:11;6.90;;;2.70;;
80421;SDS011;69763;50.182;9.144;2023-07-20T01:14:40;6.13;;;3.05;;
80421;SDS011;69763;50.182;9.144;2023-07-20T01:17:05;4.43;;;2.70;;
80421;SDS011;69763;50.182;9.144;2023-07-20T01:19:32;5.20;;;2.90;;
80421;SDS011;69763;50.182;9.144;2023-07-20T01:21:59;5.75;;;2.80;;
80421;SDS011;69763;50.182;9.144;2023-07-20T01:24:41;4.85;;;2.78;;
80421;SDS011;69763;50.182;9.144;2023-07-20T01:27:36;4.93;;;2.50;;
80421;SDS011;69763;50.182;9.144;2023-07-20T01:33:14;8.05;;;2.90;;
80421;SDS011;69763;50.182;9.144;2023-07-20T01:35:41;6.80;;;3.05;;
80421;SDS011;69763;50.182;9.144;2023-07-20T01:38:08;7.07;;;2.65;;
80421;SDS011;69763;50.182;9.144;2023-07-20T01:40:34;3.80;;;2.38;;
80421;SDS011;69763;50.182;9.144;2023-07-20T01:43:01;7.38;;;2.40;;
80421;SDS011;69763;50.182;9.144;2023-07-20T01:45:27;3.47;;;2.33;;
80421;SDS011;69763;50.182;9.144;2023-07-20T01:47:52;4.53;;;2.78;;
80421;SDS011;69763;50.182;9.144;2023-07-20T01:50:19;7.53;;;2.78;;
80421;SDS011;69763;50.182;9.144;2023-07-20T01:52:45;4.28;;;2.45;;
80421;SDS011;69763;50.182;9.144;2023-07-20T01:55:10;8.65;;;2.72;;
80421;SDS011;69763;50.182;9.144;2023-07-20T01:57:35;3.53;;;2.45;;
80421;SDS011;69763;50.182;9.144;2023-07-20T02:00:01;4.68;;;2.60;;
80421;SDS011;69763;50.182;9.144;2023-07-20T02:02:26;5.10;;;2.65;;
80421;SDS011;69763;50.182;9.144;2023-07-20T02:04:52;8.00;;;2.60;;
80421;SDS011;69763;50.182;9.144;2023-07-20T02:07:19;8.02;;;2.50;;
80421;SDS011;69763;50.182;9.144;2023-07-20T02:09:44;4.18;;;2.90;;
80421;SDS011;69763;50.182;9.144;2023-07-20T02:12:10;7.10;;;2.72;;
80421;SDS011;69763;50.182;9.144;2023-07-20T02:14:35;6.15;;;3.30;;
80421;SDS011;69763;50.182;9.144;2023-07-20T02:17:01;4.88;;;3.10;;
80421;SDS011;69763;50.182;9.144;2023-07-20T02:19:28;8.93;;;2.70;;
80421;SDS011;69763;50.182;9.144;2023-07-20T02:21:54;9.52;;;3.53;;
80421;SDS011;69763;50.182;9.144;2023-07-20T02:24:21;4.75;;;2.80;;
80421;SDS011;69763;50.182;9.144;2023-07-20T02:26:46;8.20;;;3.17;;
80421;SDS011;69763;50.182;9.144;2023-07-20T02:29:12;6.38;;;3.10;;
80421;SDS011;69763;50.182;9.144;2023-07-20T02:31:37;4.63;;;2.42;;
80421;SDS011;69763;50.182;9.144;2023-07-20T02:34:03;6.30;;;3.08;;
80421;SDS011;69763;50.182;9.144;2023-07-20T02:36:28;4.35;;;2.85;;
80421;SDS011;69763;50.182;9.144;2023-07-20T02:38:53;5.05;;;2.88;;
80421;SDS011;69763;50.182;9.144;2023-07-20T02:41:20;4.35;;;2.78;;
80421;SDS011;69763;50.182;9.144;2023-07-20T02:43:45;6.03;;;2.95;;
80421;SDS011;69763;50.182;9.144;2023-07-20T02:46:11;3.72;;;2.85;;
80421;SDS011;69763;50.182;9.144;2023-07-20T02:48:36;9.27;;;2.88;;
80421;SDS011;69763;50.182;9.144;2023-07-20T02:51:02;6.13;;;3.05;;
80421;SDS011;69763;50.182;9.144;2023-07-20T02:53:27;3.58;;;2.63;;
80421;SDS011;69763;50.182;9.144;2023-07-20T02:55:53;6.22;;;3.03;;
80421;SDS011;69763;50.182;9.144;2023-07-20T02:58:19;7.00;;;2.92;;
80421;SDS011;69763;50.182;9.144;2023-07-20T03:00:45;9.73;;;3.13;;
80421;SDS011;69763;50.182;9.144;2023-07-20T03:03:10;4.68;;;3.03;;
80421;SDS011;69763;50.182;9.144;2023-07-20T03:05:35;5.50;;;2.90;;
80421;SDS011;69763;50.182;9.144;2023-07-20T03:08:01;5.00;;;2.67;;
80421;SDS011;69763;50.182;9.144;2023-07-20T03:10:26;10.07;;;3.55;;
80421;SDS011;69763;50.182;9.144;2023-07-20T03:12:52;5.40;;;3.05;;
80421;SDS011;69763;50.182;9.144;2023-07-20T03:15:18;5.60;;;3.25;;
80421;SDS011;69763;50.182;9.144;2023-07-20T03:17:44;6.65;;;2.90;;
80421;SDS011;69763;50.182;9.144;2023-07-20T03:20:10;9.15;;;3.03;;
80421;SDS011;69763;50.182;9.144;2023-07-20T03:22:36;3.65;;;2.85;;
80421;SDS011;69763;50.182;9.144;2023-07-20T03:25:01;5.13;;;3.03;;
80421;SDS011;69763;50.182;9.144;2023-07-20T03:27:27;5.03;;;3.15;;
80421;SDS011;69763;50.182;9.144;2023-07-20T03:29:52;7.53;;;3.00;;
80421;SDS011;69763;50.182;9.144;2023-07-20T03:32:19;5.85;;;3.17;;
80421;SDS011;69763;50.182;9.144;2023-07-20T03:34:44;4.95;;;3.08;;
80421;SDS011;69763;50.182;9.144;2023-07-20T03:37:10;9.48;;;3.47;;
80421;SDS011;69763;50.182;9.144;2023-07-20T03:39:35;3.45;;;2.80;;
80421;SDS011;69763;50.182;9.144;2023-07-20T03:42:00;6.93;;;3.58;;
80421;SDS011;69763;50.182;9.144;2023-07-20T03:44:26;5.20;;;2.85;;
80421;SDS011;69763;50.182;9.144;2023-07-20T03:46:51;7.68;;;3.47;;
80421;SDS011;69763;50.182;9.144;2023-07-20T03:49:18;7.80;;;3.20;;
80421;SDS011;69763;50.182;9.144;2023-07-20T03:51:43;4.03;;;2.90;;
80421;SDS011;69763;50.182;9.144;2023-07-20T03:54:09;7.47;;;3.05;;
80421;SDS011;69763;50.182;9.144;2023-07-20T03:56:34;4.55;;;3.30;;
80421;SDS011;69763;50.182;9.144;2023-07-20T03:58:59;8.55;;;3.28;;
80421;SDS011;69763;50.182;9.144;2023-07-20T04:01:25;4.40;;;2.83;;
80421;SDS011;69763;50.182;9.144;2023-07-20T04:03:50;6.47;;;3.38;;
80421;SDS011;69763;50.182;9.144;2023-07-20T04:06:17;9.35;;;3.47;;
80421;SDS011;69763;50.182;9.144;2023-07-20T04:08:42;7.47;;;3.20;;
80421;SDS011;69763;50.182;9.144;2023-07-20T04:11:08;7.32;;;3.00;;
80421;SDS011;69763;50.182;9.144;2023-07-20T04:13:33;6.45;;;3.75;;
80421;SDS011;69763;50.182;9.144;2023-07-20T04:15:58;9.63;;;3.47;;
80421;SDS011;69763;50.182;9.144;2023-07-20T04:18:24;8.63;;;3.67;;
80421;SDS011;69763;50.182;9.144;2023-07-20T04:20:49;8.43;;;3.40;;
80421;SDS011;69763;50.182;9.144;2023-07-20T04:23:16;4.53;;;2.88;;
80421;SDS011;69763;50.182;9.144;2023-07-20T04:25:42;6.85;;;3.17;;
80421;SDS011;69763;50.182;9.144;2023-07-20T04:28:07;5.75;;;3.53;;
80421;SDS011;69763;50.182;9.144;2023-07-20T04:30:32;5.63;;;3.17;;
80421;SDS011;69763;50.182;9.144;2023-07-20T04:32:58;10.27;;;3.95;;
80421;SDS011;69763;50.182;9.144;2023-07-20T04:38:09;7.22;;;3.28;;
80421;SDS011;69763;50.182;9.144;2023-07-20T04:40:36;6.32;;;3.55;;
80421;SDS011;69763;50.182;9.144;2023-07-20T04:43:02;4.82;;;3.00;;
80421;SDS011;69763;50.182;9.144;2023-07-20T04:45:27;4.38;;;2.60;;
80421;SDS011;69763;50.182;9.144;2023-07-20T04:47:52;7.15;;;3.10;;
80421;SDS011;69763;50.182;9.144;2023-07-20T04:50:18;5.93;;;3.33;;
80421;SDS011;69763;50.182;9.144;2023-07-20T04:52:43;6.75;;;2.90;;
80421;SDS011;69763;50.182;9.144;2023-07-20T04:55:08;6.20;;;3.00;;
80421;SDS011;69763;50.182;9.144;2023-07-20T04:57:35;5.55;;;3.13;;
80421;SDS011;69763;50.182;9.144;2023-07-20T05:00:00;4.63;;;3.08;;
80421;SDS011;69763;50.182;9.144;2023-07-20T05:02:26;6.80;;;2.90;;
80421;SDS011;69763;50.182;9.144;2023-07-20T05:04:51;7.57;;;3.57;;
80421;SDS011;69763;50.182;9.144;2023-07-20T05:07:16;7.90;;;3.15;;
80421;SDS011;69763;50.182;9.144;2023-07-20T05:09:42;8.57;;;2.65;;
80421;SDS011;69763;50.182;9.144;2023-07-20T05:12:07;8.95;;;3.15;;
80421;SDS011;69763;50.182;9.144;2023-07-20T05:14:34;8.60;;;3.25;;
80421;SDS011;69763;50.182;9.144;2023-07-20T05:16:59;6.40;;;3.10;;
80421;SDS011;69763;50.182;9.144;2023-07-20T05:19:25;4.90;;;2.80;;
80421;SDS011;69763;50.182;9.144;2023-07-20T05:21:51;5.18;;;2.60;;
80421;SDS011;69763;50.182;9.144;2023-07-20T05:24:16;6.38;;;3.25;;
80421;SDS011;69763;50.182;9.144;2023-07-20T05:26:42;6.07;;;3.35;;
80421;SDS011;69763;50.182;9.144;2023-07-20T05:29:07;5.85;;;2.92;;
80421;SDS011;69763;50.182;9.144;2023-07-20T05:31:34;6.47;;;2.97;;
80421;SDS011;69763;50.182;9.144;2023-07-20T05:33:59;5.75;;;2.83;;
80421;SDS011;69763;50.182;9.144;2023-07-20T05:36:24;5.63;;;3.40;;
80421;SDS011;69763;50.182;9.144;2023-07-20T05:38:50;8.30;;;3.20;;
80421;SDS011;69763;50.182;9.144;2023-07-20T05:41:15;6.00;;;2.90;;
80421;SDS011;69763;50.182;9.144;2023-07-20T05:43:40;7.43;;;3.42;;
80421;SDS011;69763;50.182;9.144;2023-07-20T05:46:06;7.20;;;3.65;;
80421;SDS011;69763;50.182;9.144;2023-07-20T05:48:32;6.85;;;3.30;;
80421;SDS011;69763;50.182;9.144;2023-07-20T05:50:58;5.32;;;2.83;;
80421;SDS011;69763;50.182;9.144;2023-07-20T05:53:23;7.38;;;3.42;;
80421;SDS011;69763;50.182;9.144;2023-07-20T05:55:51;7.38;;;2.88;;
80421;SDS011;69763;50.182;9.144;2023-07-20T05:58:17;5.78;;;2.92;;
80421;SDS011;69763;50.182;9.144;2023-07-20T06:00:42;6.95;;;2.97;;
80421;SDS011;69763;50.182;9.144;2023-07-20T06:03:08;6.43;;;3.42;;
80421;SDS011;69763;50.182;9.144;2023-07-20T06:05:34;7.82;;;3.17;;
80421;SDS011;69763;50.182;9.144;2023-07-20T06:08:00;5.15;;;2.88;;
80421;SDS011;69763;50.182;9.144;2023-07-20T06:10:25;8.32;;;3.00;;
80421;SDS011;69763;50.182;9.144;2023-07-20T06:12:51;4.50;;;2.78;;
80421;SDS011;69763;50.182;9.144;2023-07-20T06:15:25;7.18;;;2.80;;
80421;SDS011;69763;50.182;9.144;2023-07-20T06:17:51;4.30;;;2.38;;
80421;SDS011;69763;50.182;9.144;2023-07-20T06:20:17;5.65;;;2.92;;
80421;SDS011;69763;50.182;9.144;2023-07-20T06:22:44;4.43;;;2.80;;
80421;SDS011;69763;50.182;9.144;2023-07-20T06:25:09;6.72;;;3.03;;
80421;SDS011;69763;50.182;9.144;2023-07-20T06:27:35;4.50;;;3.10;;
80421;SDS011;69763;50.182;9.144;2023-07-20T06:30:00;5.93;;;3.17;;
80421;SDS011;69763;50.182;9.144;2023-07-20T06:32:26;5.57;;;2.80;;
80421;SDS011;69763;50.182;9.144;2023-07-20T06:34:51;5.25;;;2.63;;
80421;SDS011;69763;50.182;9.144;2023-07-20T06:37:16;6.57;;;2.92;;
80421;SDS011;69763;50.182;9.144;2023-07-20T06:39:43;6.90;;;2.88;;
80421;SDS011;69763;50.182;9.144;2023-07-20T06:42:08;7.65;;;2.88;;
80421;SDS011;69763;50.182;9.144;2023-07-20T06:44:34;8.95;;;2.95;;
80421;SDS011;69763;50.182;9.144;2023-07-20T06:46:59;5.93;;;3.05;;
80421;SDS011;69763;50.182;9.144;2023-07-20T06:49:24;7.97;;;2.75;;
80421;SDS011;69763;50.182;9.144;2023-07-20T06:51:50;6.88;;;2.97;;
80421;SDS011;69763;50.182;9.144;2023-07-20T06:54:15;6.90;;;2.90;;
80421;SDS011;69763;50.182;9.144;2023-07-20T06:56:42;7.43;;;3.10;;
80421;SDS011;69763;50.182;9.144;2023-07-20T06:59:07;8.43;;;2.72;;
80421;SDS011;69763;50.182;9.144;2023-07-20T07:01:33;5.25;;;3.00;;
80421;SDS011;69763;50.182;9.144;2023-07-20T07:03:58;8.70;;;2.88;;
80421;SDS011;69763;50.182;9.144;2023-07-20T07:06:24;6.70;;;3.05;;
80421;SDS011;69763;50.182;9.144;2023-07-20T07:08:49;8.73;;;3.05;;
80421;SDS011;69763;50.182;9.144;2023-07-20T07:11:14;7.18;;;2.80;;
80421;SDS011;69763;50.182;9.144;2023-07-20T07:13:41;6.35;;;3.03;;
80421;SDS011;69763;50.182;9.144;2023-07-20T07:16:06;6.47;;;2.80;;
80421;SDS011;69763;50.182;9.144;2023-07-20T07:18:32;6.13;;;2.58;;
80421;SDS011;69763;50.182;9.144;2023-07-20T07:20:57;5.22;;;2.95;;
80421;SDS011;69763;50.182;9.144;2023-07-20T07:23:23;11.30;;;3.23;;
80421;SDS011;69763;50.182;9.144;2023-07-20T07:25:48;6.90;;;3.08;;
80421;SDS011;69763;50.182;9.144;2023-07-20T07:28:14;4.40;;;2.53;;
80421;SDS011;69763;50.182;9.144;2023-07-20T07:30:40;6.40;;;3.30;;
80421;SDS011;69763;50.182;9.144;2023-07-20T07:33:06;8.30;;;2.85;;
80421;SDS011;69763;50.182;9.144;2023-07-20T07:35:31;7.03;;;2.58;;
80421;SDS011;69763;50.182;9.144;2023-07-20T07:37:57;8.75;;;3.08;;
80421;SDS011;69763;50.182;9.144;2023-07-20T07:40:22;9.50;;;3.22;;
80421;SDS011;69763;50.182;9.144;2023-07-20T07:42:47;6.65;;;2.80;;
80421;SDS011;69763;50.182;9.144;2023-07-20T07:45:13;6.50;;;2.80;;
80421;SDS011;69763;50.182;9.144;2023-07-20T07:47:40;6.57;;;2.97;;
80421;SDS011;69763;50.182;9.144;2023-07-20T07:50:06;6.00;;;2.90;;
80421;SDS011;69763;50.182;9.144;2023-07-20T07:52:32;7.78;;;2.72;;
80421;SDS011;69763;50.182;9.144;2023-07-20T07:57:22;5.83;;;2.50;;
80421;SDS011;69763;50.182;9.144;2023-07-20T07:59:48;6.35;;;2.50;;
80421;SDS011;69763;50.182;9.144;2023-07-20T08:02:13;8.63;;;2.97;;
80421;SDS011;69763;50.182;9.144;2023-07-20T08:04:40;5.68;;;2.67;;
80421;SDS011;69763;50.182;9.144;2023-07-20T08:07:05;4.63;;;2.85;;
80421;SDS011;69763;50.182;9.144;2023-07-20T08:11:56;5.03;;;2.53;;
80421;SDS011;69763;50.182;9.144;2023-07-20T08:14:21;3.95;;;2.38;;
80421;SDS011;69763;50.182;9.144;2023-07-20T08:19:14;5.03;;;2.50;;
80421;SDS011;69763;50.182;9.144;2023-07-20T08:21:41;7.85;;;2.70;;
80421;SDS011;69763;50.182;9.144;2023-07-20T08:24:06;6.57;;;2.97;;
80421;SDS011;69763;50.182;9.144;2023-07-20T08:26:32;7.40;;;2.95;;
80421;SDS011;69763;50.182;9.144;2023-07-20T08:28:57;5.05;;;2.80;;
80421;SDS011;69763;50.182;9.144;2023-07-20T08:31:23;7.40;;;2.60;;
80421;SDS011;69763;50.182;9.144;2023-07-20T08:33:48;6.25;;;2.72;;
80421;SDS011;69763;50.182;9.144;2023-07-20T08:36:13;10.10;;;2.92;;
80421;SDS011;69763;50.182;9.144;2023-07-20T08:38:40;6.00;;;2.63;;
80421;SDS011;69763;50.182;9.144;2023-07-20T08:41:05;9.55;;;2.65;;
80421;SDS011;69763;50.182;9.144;2023-07-20T08:43:31;6.18;;;2.90;;
80421;SDS011;69763;50.182;9.144;2023-07-20T08:45:58;4.63;;;2.40;;
80421;SDS011;69763;50.182;9.144;2023-07-20T08:48:24;4.22;;;2.85;;
80421;SDS011;69763;50.182;9.144;2023-07-20T08:50:50;4.25;;;2.30;;
80421;SDS011;69763;50.182;9.144;2023-07-20T08:53:17;3.92;;;2.20;;
80421;SDS011;69763;50.182;9.144;2023-07-20T08:55:44;5.55;;;2.72;;
80421;SDS011;69763;50.182;9.144;2023-07-20T08:58:11;6.18;;;2.58;;
80421;SDS011;69763;50.182;9.144;2023-07-20T09:00:37;6.00;;;2.70;;
80421;SDS011;69763;50.182;9.144;2023-07-20T09:05:28;4.50;;;2.40;;
80421;SDS011;69763;50.182;9.144;2023-07-20T09:07:54;4.10;;;2.08;;
80421;SDS011;69763;50.182;9.144;2023-07-20T09:10:20;6.53;;;2.80;;
80421;SDS011;69763;50.182;9.144;2023-07-20T09:12:47;6.72;;;2.40;;
80421;SDS011;69763;50.182;9.144;2023-07-20T09:15:12;5.00;;;2.53;;
80421;SDS011;69763;50.182;9.144;2023-07-20T09:17:38;4.82;;;2.55;;
80421;SDS011;69763;50.182;9.144;2023-07-20T09:20:04;5.93;;;2.85;;
80421;SDS011;69763;50.182;9.144;2023-07-20T09:22:30;5.18;;;2.67;;
80421;SDS011;69763;50.182;9.144;2023-07-20T09:24:56;4.05;;;2.50;;
80421;SDS011;69763;50.182;9.144;2023-07-20T09:27:24;5.07;;;2.75;;
80421;SDS011;69763;50.182;9.144;2023-07-20T09:30:00;4.65;;;2.50;;
80421;SDS011;69763;50.182;9.144;2023-07-20T09:32:26;6.47;;;2.50;;
80421;SDS011;69763;50.182;9.144;2023-07-20T09:37:19;4.40;;;2.20;;
80421;SDS011;69763;50.182;9.144;2023-07-20T09:39:45;6.07;;;2.50;;
80421;SDS011;69763;50.182;9.144;2023-07-20T09:44:36;4.43;;;2.38;;
80421;SDS011;69763;50.182;9.144;2023-07-20T09:47:04;4.85;;;2.60;;
80421;SDS011;69763;50.182;9.144;2023-07-20T09:49:30;8.48;;;2.35;;
80421;SDS011;69763;50.182;9.144;2023-07-20T09:54:22;4.40;;;2.30;;
80421;SDS011;69763;50.182;9.144;2023-07-20T09:59:13;4.57;;;2.57;;
80421;SDS011;69763;50.182;9.144;2023-07-20T10:04:07;3.78;;;2.35;;
80421;SDS011;69763;50.182;9.144;2023-07-20T10:06:34;5.18;;;2.42;;
80421;SDS011;69763;50.182;9.144;2023-07-20T10:09:01;4.00;;;2.13;;
80421;SDS011;69763;50.182;9.144;2023-07-20T10:11:27;6.75;;;2.50;;
80421;SDS011;69763;50.182;9.144;2023-07-20T10:13:58;5.55;;;2.78;;
80421;SDS011;69763;50.182;9.144;2023-07-20T10:16:26;5.25;;;2.38;;
80421;SDS011;69763;50.182;9.144;2023-07-20T10:18:55;4.95;;;2.58;;
80421;SDS011;69763;50.182;9.144;2023-07-20T10:21:28;4.65;;;2.38;;
80421;SDS011;69763;50.182;9.144;2023-07-20T10:23:55;5.65;;;2.20;;
80421;SDS011;69763;50.182;9.144;2023-07-20T10:26:22;2.65;;;1.88;;
80421;SDS011;69763;50.182;9.144;2023-07-20T10:28:47;4.53;;;2.60;;
80421;SDS011;69763;50.182;9.144;2023-07-20T10:33:38;7.33;;;2.50;;
80421;SDS011;69763;50.182;9.144;2023-07-20T10:36:04;3.13;;;2.35;;
80421;SDS011;69763;50.182;9.144;2023-07-20T10:38:40;3.60;;;2.20;;
80421;SDS011;69763;50.182;9.144;2023-07-20T10:41:16;4.72;;;2.10;;
80421;SDS011;69763;50.182;9.144;2023-07-20T10:43:43;4.22;;;2.30;;
80421;SDS011;69763;50.182;9.144;2023-07-20T10:46:08;4.63;;;2.38;;
80421;SDS011;69763;50.182;9.144;2023-07-20T10:48:36;4.38;;;2.47;;
80421;SDS011;69763;50.182;9.144;2023-07-20T10:51:25;6.43;;;2.15;;
80421;SDS011;69763;50.182;9.144;2023-07-20T10:56:19;6.80;;;2.60;;
80421;SDS011;69763;50.182;9.144;2023-07-20T10:58:48;6.20;;;2.10;;
80421;SDS011;69763;50.182;9.144;2023-07-20T11:03:39;3.90;;;2.28;;
80421;SDS011;69763;50.182;9.144;2023-07-20T11:08:56;5.43;;;2.63;;
80421;SDS011;69763;50.182;9.144;2023-07-20T11:11:29;5.38;;;2.33;;
80421;SDS011;69763;50.182;9.144;2023-07-20T11:13:56;3.50;;;2.08;;
80421;SDS011;69763;50.182;9.144;2023-07-20T11:16:35;3.95;;;2.20;;
80421;SDS011;69763;50.182;9.144;2023-07-20T11:19:02;4.60;;;2.42;;
80421;SDS011;69763;50.182;9.144;2023-07-20T11:23:53;6.03;;;2.42;;
80421;SDS011;69763;50.182;9.144;2023-07-20T11:28:48;3.65;;;2.22;;
80421;SDS011;69763;50.182;9.144;2023-07-20T11:31:14;3.15;;;2.08;;
80421;SDS011;69763;50.182;9.144;2023-07-20T11:36:05;4.00;;;2.23;;
80421;SDS011;69763;50.182;9.144;2023-07-20T11:38:30;5.50;;;2.30;;
80421;SDS011;69763;50.182;9.144;2023-07-20T11:40:57;4.68;;;2.67;;
80421;SDS011;69763;50.182;9.144;2023-07-20T11:45:49;3.47;;;2.38;;
80421;SDS011;69763;50.182;9.144;2023-07-20T11:50:40;4.38;;;2.40;;
80421;SDS011;69763;50.182;9.144;2023-07-20T11:55:31;4.53;;;2.42;;
80421;SDS011;69763;50.182;9.144;2023-07-20T12:00:29;9.68;;;2.42;;
80421;SDS011;69763;50.182;9.144;2023-07-20T12:02:55;5.15;;;2.50;;
80421;SDS011;69763;50.182;9.144;2023-07-20T12:05:22;4.75;;;2.20;;
80421;SDS011;69763;50.182;9.144;2023-07-20T12:07:48;3.63;;;2.25;;
80421;SDS011;69763;50.182;9.144;2023-07-20T12:10:14;3.70;;;2.33;;
80421;SDS011;69763;50.182;9.144;2023-07-20T12:12:40;4.80;;;2.53;;
80421;SDS011;69763;50.182;9.144;2023-07-20T12:15:14;2.80;;;2.00;;
80421;SDS011;69763;50.182;9.144;2023-07-20T12:17:42;3.72;;;2.30;;
80421;SDS011;69763;50.182;9.144;2023-07-20T12:20:09;7.47;;;2.53;;
80421;SDS011;69763;50.182;9.144;2023-07-20T12:22:37;2.85;;;1.90;;
80421;SDS011;69763;50.182;9.144;2023-07-20T12:25:05;3.90;;;2.10;;
80421;SDS011;69763;50.182;9.144;2023-07-20T12:27:30;5.45;;;2.50;;
80421;SDS011;69763;50.182;9.144;2023-07-20T12:29:56;3.15;;;2.28;;
80421;SDS011;69763;50.182;9.144;2023-07-20T12:34:48;3.43;;;2.40;;
80421;SDS011;69763;50.182;9.144;2023-07-20T12:37:13;5.80;;;2.40;;
80421;SDS011;69763;50.182;9.144;2023-07-20T12:39:38;4.05;;;2.25;;
80421;SDS011;69763;50.182;9.144;2023-07-20T12:42:04;3.95;;;2.40;;
80421;SDS011;69763;50.182;9.144;2023-07-20T12:44:30;2.88;;;2.28;;
80421;SDS011;69763;50.182;9.144;2023-07-20T12:46:56;4.70;;;2.10;;
80421;SDS011;69763;50.182;9.144;2023-07-20T12:49:21;3.78;;;2.40;;
80421;SDS011;69763;50.182;9.144;2023-07-20T12:51:48;6.93;;;2.47;;
80421;SDS011;69763;50.182;9.144;2023-07-20T12:54:13;3.72;;;2.35;;
80421;SDS011;69763;50.182;9.144;2023-07-20T12:56:39;2.70;;;2.00;;
80421;SDS011;69763;50.182;9.144;2023-07-20T12:59:04;3.28;;;2.10;;
80421;SDS011;69763;50.182;9.144;2023-07-20T13:03:55;6.87;;;2.20;;
80421;SDS011;69763;50.182;9.144;2023-07-20T13:08:46;2.93;;;2.00;;
80421;SDS011;69763;50.182;9.144;2023-07-20T13:11:12;4.72;;;2.47;;
80421;SDS011;69763;50.182;9.144;2023-07-20T13:13:37;6.15;;;2.63;;
80421;SDS011;69763;50.182;9.144;2023-07-20T13:18:28;8.38;;;2.17;;
80421;SDS011;69763;50.182;9.144;2023-07-20T13:23:18;5.50;;;2.03;;
80421;SDS011;69763;50.182;9.144;2023-07-20T13:25:45;3.22;;;2.00;;
80421;SDS011;69763;50.182;9.144;2023-07-20T13:28:10;3.15;;;1.90;;
80421;SDS011;69763;50.182;9.144;2023-07-20T13:33:01;4.00;;;2.13;;
80421;SDS011;69763;50.182;9.144;2023-07-20T13:35:26;4.32;;;2.20;;
80421;SDS011;69763;50.182;9.144;2023-07-20T13:40:17;2.67;;;1.90;;
80421;SDS011;69763;50.182;9.144;2023-07-20T13:45:09;3.35;;;1.63;;
80421;SDS011;69763;50.182;9.144;2023-07-20T13:50:00;2.73;;;2.07;;
80421;SDS011;69763;50.182;9.144;2023-07-20T13:52:25;3.00;;;1.90;;
80421;SDS011;69763;50.182;9.144;2023-07-20T13:57:16;3.57;;;1.93;;
80421;SDS011;69763;50.182;9.144;2023-07-20T13:59:43;5.05;;;2.22;;
80421;SDS011;69763;50.182;9.144;2023-07-20T14:02:09;3.95;;;2.13;;
80421;SDS011;69763;50.182;9.144;2023-07-20T14:07:00;2.70;;;2.00;;
80421;SDS011;69763;50.182;9.144;2023-07-20T14:11:50;4.00;;;2.00;;
80421;SDS011;69763;50.182;9.144;2023-07-20T14:16:42;4.70;;;1.97;;
80421;SDS011;69763;50.182;9.144;2023-07-20T14:19:07;2.72;;;1.65;;
80421;SDS011;69763;50.182;9.144;2023-07-20T14:23:58;2.67;;;1.80;;
80421;SDS011;69763;50.182;9.144;2023-07-20T14:28:49;2.93;;;1.97;;
80421;SDS011;69763;50.182;9.144;2023-07-20T14:33:41;2.73;;;1.90;;
80421;SDS011;69763;50.182;9.144;2023-07-20T14:36:06;5.00;;;2.15;;
80421;SDS011;69763;50.182;9.144;2023-07-20T14:40:58;6.18;;;1.77;;
80421;SDS011;69763;50.182;9.144;2023-07-20T14:45:49;2.67;;;2.00;;
80421;SDS011;69763;50.182;9.144;2023-07-20T14:50:41;3.43;;;2.73;;
80421;SDS011;69763;50.182;9.144;2023-07-20T14:53:06;3.38;;;2.45;;
80421;SDS011;69763;50.182;9.144;2023-07-20T14:57:57;2.87;;;1.90;;
80421;SDS011;69763;50.182;9.144;2023-07-20T15:02:47;2.90;;;1.87;;
80421;SDS011;69763;50.182;9.144;2023-07-20T15:07:46;3.63;;;2.30;;
80421;SDS011;69763;50.182;9.144;2023-07-20T15:10:12;2.83;;;2.10;;
80421;SDS011;69763;50.182;9.144;2023-07-20T15:15:03;5.53;;;2.50;;
80421;SDS011;69763;50.182;9.144;2023-07-20T15:17:30;5.63;;;2.10;;
80421;SDS011;69763;50.182;9.144;2023-07-20T15:19:55;4.80;;;2.30;;
80421;SDS011;69763;50.182;9.144;2023-07-20T15:24:47;3.10;;;2.10;;
80421;SDS011;69763;50.182;9.144;2023-07-20T15:27:12;2.78;;;1.95;;
80421;SDS011;69763;50.182;9.144;2023-07-20T15:29:38;3.95;;;2.15;;
80421;SDS011;69763;50.182;9.144;2023-07-20T15:34:28;7.00;;;2.42;;
80421;SDS011;69763;50.182;9.144;2023-07-20T15:39:19;4.07;;;2.60;;
80421;SDS011;69763;50.182;9.144;2023-07-20T15:44:12;4.22;;;2.33;;
80421;SDS011;69763;50.182;9.144;2023-07-20T15:49:10;8.52;;;2.92;;
80421;SDS011;69763;50.182;9.144;2023-07-20T15:54:00;3.22;;;2.50;;
80421;SDS011;69763;50.182;9.144;2023-07-20T15:56:26;4.75;;;2.53;;
80421;SDS011;69763;50.182;9.144;2023-07-20T16:01:18;5.65;;;2.42;;
80421;SDS011;69763;50.182;9.144;2023-07-20T16:03:43;4.53;;;2.60;;
80421;SDS011;69763;50.182;9.144;2023-07-20T16:06:09;3.85;;;2.35;;
80421;SDS011;69763;50.182;9.144;2023-07-20T16:10:59;4.07;;;2.00;;
80421;SDS011;69763;50.182;9.144;2023-07-20T16:13:24;4.88;;;2.50;;
80421;SDS011;69763;50.182;9.144;2023-07-20T16:15:51;2.80;;;2.20;;
80421;SDS011;69763;50.182;9.144;2023-07-20T16:18:17;3.70;;;2.03;;
80421;SDS011;69763;50.182;9.144;2023-07-20T16:20:42;2.95;;;2.05;;
80421;SDS011;69763;50.182;9.144;2023-07-20T16:25:33;3.20;;;2.60;;
80421;SDS011;69763;50.182;9.144;2023-07-20T16:30:23;4.83;;;2.40;;
80421;SDS011;69763;50.182;9.144;2023-07-20T16:32:50;4.95;;;2.80;;
80421;SDS011;69763;50.182;9.144;2023-07-20T16:35:15;2.95;;;2.35;;
80421;SDS011;69763;50.182;9.144;2023-07-20T16:37:41;4.15;;;2.80;;
80421;SDS011;69763;50.182;9.144;2023-07-20T16:40:08;4.65;;;2.83;;
80421;SDS011;69763;50.182;9.144;2023-07-20T16:42:34;7.57;;;2.80;;
80421;SDS011;69763;50.182;9.144;2023-07-20T16:44:59;3.72;;;2.72;;
80421;SDS011;69763;50.182;9.144;2023-07-20T16:47:24;4.30;;;2.90;;
80421;SDS011;69763;50.182;9.144;2023-07-20T16:49:51;3.97;;;2.67;;
80421;SDS011;69763;50.182;9.144;2023-07-20T16:52:16;4.60;;;2.97;;
80421;SDS011;69763;50.182;9.144;2023-07-20T16:54:42;4.28;;;2.88;;
80421;SDS011;69763;50.182;9.144;2023-07-20T16:57:07;6.43;;;2.90;;